createdAt,value
2018-08-30T00:00:11.559Z,17.58
2018-08-30T00:01:11.621Z,17.60
2018-08-30T00:02:11.687Z,17.63
2018-08-30T00:03:11.794Z,17.55
2018-08-30T00:04:11.809Z,17.68
2018-08-30T00:05:11.870Z,17.58
2018-08-30T00:06:11.933Z,17.65
2018-08-30T00:07:11.993Z,17.55
2018-08-30T00:08:12.057Z,17.58
2018-08-30T00:09:12.120Z,17.65
2018-08-30T00:10:12.180Z,17.57
2018-08-30T00:11:12.243Z,17.58
2018-08-30T00:12:12.306Z,17.57
2018-08-30T00:13:12.369Z,17.62
2018-08-30T00:14:12.430Z,17.54
2018-08-30T00:15:12.493Z,17.54
2018-08-30T00:16:12.554Z,17.58
2018-08-30T00:17:12.618Z,17.58
2018-08-30T00:18:12.679Z,17.53
2018-08-30T00:19:12.744Z,17.58
2018-08-30T00:20:12.804Z,17.55
2018-08-30T00:21:12.866Z,17.55
2018-08-30T00:22:12.929Z,17.47
2018-08-30T00:23:12.989Z,17.53
2018-08-30T00:24:13.052Z,17.55
2018-08-30T00:25:13.113Z,17.49
2018-08-30T00:26:13.175Z,17.51
2018-08-30T00:27:13.238Z,17.47
2018-08-30T00:28:13.300Z,17.51
2018-08-30T00:29:13.360Z,17.53
2018-08-30T00:30:13.425Z,17.47
2018-08-30T00:31:13.485Z,17.53
2018-08-30T00:32:13.548Z,17.47
2018-08-30T00:33:13.612Z,17.53
2018-08-30T00:34:13.672Z,17.46
2018-08-30T00:35:13.733Z,17.53
2018-08-30T00:36:13.795Z,17.46
2018-08-30T00:37:13.858Z,17.54
2018-08-30T00:38:13.919Z,17.51
2018-08-30T00:39:13.981Z,17.49
2018-08-30T00:40:14.043Z,17.51
2018-08-30T00:41:14.114Z,17.39
2018-08-30T00:42:14.167Z,17.35
2018-08-30T00:43:14.379Z,17.51
2018-08-30T00:44:14.878Z,17.45
2018-08-30T00:45:14.353Z,17.36
2018-08-30T00:46:14.416Z,17.33
2018-08-30T00:47:14.475Z,17.32
2018-08-30T00:48:14.538Z,17.27
2018-08-30T00:49:14.601Z,17.15
2018-08-30T00:50:14.661Z,16.99
2018-08-30T00:51:14.724Z,17.02
2018-08-30T00:52:14.787Z,16.99
2018-08-30T00:53:14.847Z,16.78
2018-08-30T00:54:14.911Z,16.81
2018-08-30T00:55:14.976Z,16.85
2018-08-30T00:56:15.032Z,16.82
2018-08-30T00:57:15.094Z,16.77
2018-08-30T00:58:15.305Z,16.72
2018-08-30T00:59:15.218Z,16.72
2018-08-30T01:00:15.279Z,16.69
2018-08-30T01:01:15.341Z,16.67
2018-08-30T01:02:15.402Z,16.66
2018-08-30T01:03:15.465Z,16.72
2018-08-30T01:04:15.527Z,16.69
2018-08-30T01:05:15.589Z,16.65
2018-08-30T01:06:15.650Z,16.55
2018-08-30T01:07:15.712Z,16.62
2018-08-30T01:08:15.773Z,16.42
2018-08-30T01:09:15.836Z,16.51
2018-08-30T01:10:15.897Z,16.40
2018-08-30T01:11:15.958Z,16.34
2018-08-30T01:12:16.020Z,16.40
2018-08-30T01:13:16.082Z,16.37
2018-08-30T01:14:16.143Z,16.33
2018-08-30T01:15:16.207Z,16.33
2018-08-30T01:16:16.266Z,16.44
2018-08-30T01:17:16.328Z,16.36
2018-08-30T01:18:16.389Z,16.30
2018-08-30T01:19:16.451Z,16.30
2018-08-30T01:20:16.512Z,16.40
2018-08-30T01:21:16.574Z,16.36
2018-08-30T01:22:16.634Z,16.33
2018-08-30T01:23:16.698Z,16.33
2018-08-30T01:24:16.763Z,16.40
2018-08-30T01:25:16.820Z,16.34
2018-08-30T01:26:16.881Z,16.37
2018-08-30T01:27:16.945Z,16.44
2018-08-30T01:28:17.004Z,16.36
2018-08-30T01:29:17.068Z,16.40
2018-08-30T01:30:17.125Z,16.34
2018-08-30T01:31:17.188Z,16.34
2018-08-30T01:32:17.249Z,16.33
2018-08-30T01:33:17.313Z,16.36
2018-08-30T01:34:17.373Z,16.26
2018-08-30T01:35:17.434Z,16.33
2018-08-30T01:36:17.496Z,16.33
2018-08-30T01:37:17.558Z,16.36
2018-08-30T01:38:17.619Z,16.32
2018-08-30T01:39:17.680Z,16.32
2018-08-30T01:40:17.742Z,16.47
2018-08-30T01:41:17.805Z,16.44
2018-08-30T01:42:17.864Z,16.47
2018-08-30T01:43:17.927Z,16.50
2018-08-30T01:44:17.988Z,16.50
2018-08-30T01:45:18.050Z,16.57
2018-08-30T01:46:18.113Z,16.54
2018-08-30T01:47:18.173Z,16.62
2018-08-30T01:48:18.233Z,16.65
2018-08-30T01:49:18.296Z,16.66
2018-08-30T01:50:18.355Z,16.66
2018-08-30T01:51:18.418Z,16.57
2018-08-30T01:52:18.480Z,16.73
2018-08-30T01:53:18.541Z,16.70
2018-08-30T01:54:18.603Z,16.67
2018-08-30T01:55:18.664Z,16.84
2018-08-30T01:56:18.726Z,16.84
2018-08-30T01:57:18.787Z,16.81
2018-08-30T01:58:18.848Z,16.82
2018-08-30T01:59:18.910Z,16.73
2018-08-30T02:00:18.970Z,16.62
2018-08-30T02:01:19.034Z,16.59
2018-08-30T02:02:19.094Z,16.67
2018-08-30T02:03:19.160Z,16.60
2018-08-30T02:04:19.218Z,16.59
2018-08-30T02:05:19.280Z,16.54
2018-08-30T02:06:19.339Z,16.60
2018-08-30T02:07:19.402Z,16.57
2018-08-30T02:08:19.464Z,16.51
2018-08-30T02:09:19.526Z,16.48
2018-08-30T02:10:19.587Z,16.47
2018-08-30T02:11:19.654Z,16.42
2018-08-30T02:12:19.711Z,16.52
2018-08-30T02:13:19.772Z,16.48
2018-08-30T02:14:19.832Z,16.47
2018-08-30T02:15:19.895Z,16.40
2018-08-30T02:16:19.956Z,16.47
2018-08-30T02:17:20.018Z,16.45
2018-08-30T02:18:20.080Z,16.52
2018-08-30T02:19:20.139Z,16.60
2018-08-30T02:20:20.202Z,16.54
2018-08-30T02:21:20.263Z,16.60
2018-08-30T02:22:20.325Z,16.48
2018-08-30T02:23:20.391Z,16.65
2018-08-30T02:24:20.447Z,16.54
2018-08-30T02:25:20.510Z,16.54
2018-08-30T02:26:20.570Z,16.57
2018-08-30T02:27:20.632Z,16.62
2018-08-30T02:28:20.692Z,16.55
2018-08-30T02:29:20.755Z,16.57
2018-08-30T02:30:20.816Z,16.55
2018-08-30T02:31:20.877Z,16.59
2018-08-30T02:32:20.942Z,16.62
2018-08-30T02:33:21.001Z,16.48
2018-08-30T02:34:21.062Z,16.45
2018-08-30T02:35:21.124Z,16.47
2018-08-30T02:36:21.185Z,16.50
2018-08-30T02:37:21.248Z,16.37
2018-08-30T02:38:21.307Z,16.41
2018-08-30T02:39:21.369Z,16.48
2018-08-30T02:40:21.430Z,16.50
2018-08-30T02:41:21.492Z,16.50
2018-08-30T02:42:21.553Z,16.44
2018-08-30T02:43:21.615Z,16.44
2018-08-30T02:44:21.676Z,16.55
2018-08-30T02:45:21.739Z,16.62
2018-08-30T02:46:21.799Z,16.57
2018-08-30T02:47:21.860Z,16.57
2018-08-30T02:48:21.923Z,16.48
2018-08-30T02:49:21.984Z,16.45
2018-08-30T02:50:22.049Z,16.63
2018-08-30T02:51:22.107Z,16.67
2018-08-30T02:52:22.168Z,16.66
2018-08-30T02:53:22.230Z,16.67
2018-08-30T02:54:22.290Z,16.63
2018-08-30T02:55:22.351Z,16.57
2018-08-30T02:56:22.414Z,16.60
2018-08-30T02:57:22.478Z,16.65
2018-08-30T02:58:22.536Z,16.63
2018-08-30T02:59:22.596Z,16.57
2018-08-30T03:00:22.659Z,16.54
2018-08-30T03:01:22.722Z,16.60
2018-08-30T03:02:22.781Z,16.47
2018-08-30T03:03:22.843Z,16.59
2018-08-30T03:04:22.904Z,16.57
2018-08-30T03:05:22.965Z,16.52
2018-08-30T03:06:23.027Z,16.52
2018-08-30T03:07:23.090Z,16.44
2018-08-30T03:08:23.200Z,16.55
2018-08-30T03:09:23.213Z,16.54
2018-08-30T03:10:23.274Z,16.44
2018-08-30T03:11:23.334Z,16.42
2018-08-30T03:12:23.396Z,16.47
2018-08-30T03:13:23.458Z,16.62
2018-08-30T03:14:23.518Z,16.48
2018-08-30T03:15:23.582Z,16.40
2018-08-30T03:16:23.641Z,16.51
2018-08-30T03:17:23.703Z,16.30
2018-08-30T03:18:23.769Z,16.50
2018-08-30T03:19:23.832Z,16.45
2018-08-30T03:20:23.887Z,16.41
2018-08-30T03:21:23.949Z,16.45
2018-08-30T03:22:24.011Z,16.48
2018-08-30T03:23:24.070Z,16.42
2018-08-30T03:24:24.133Z,16.37
2018-08-30T03:25:24.194Z,16.47
2018-08-30T03:26:24.254Z,16.40
2018-08-30T03:27:24.316Z,16.30
2018-08-30T03:28:24.378Z,16.32
2018-08-30T03:29:24.439Z,16.37
2018-08-30T03:30:24.615Z,16.33
2018-08-30T03:31:24.562Z,16.36
2018-08-30T03:32:24.623Z,16.30
2018-08-30T03:33:24.686Z,16.26
2018-08-30T03:34:24.748Z,16.32
2018-08-30T03:35:24.807Z,16.25
2018-08-30T03:36:24.873Z,16.26
2018-08-30T03:37:24.931Z,16.34
2018-08-30T03:38:24.990Z,16.41
2018-08-30T03:39:25.053Z,16.37
2018-08-30T03:40:25.118Z,16.36
2018-08-30T03:41:25.176Z,16.32
2018-08-30T03:42:25.236Z,16.26
2018-08-30T03:43:25.298Z,16.26
2018-08-30T03:44:25.359Z,16.25
2018-08-30T03:45:25.421Z,16.23
2018-08-30T03:46:25.486Z,16.23
2018-08-30T03:47:25.544Z,16.26
2018-08-30T03:48:25.606Z,16.23
2018-08-30T03:49:25.667Z,16.23
2018-08-30T03:50:25.727Z,16.26
2018-08-30T03:51:25.788Z,16.29
2018-08-30T03:52:25.852Z,16.29
2018-08-30T03:53:25.913Z,16.17
2018-08-30T03:54:25.974Z,16.22
2018-08-30T03:55:26.035Z,16.18
2018-08-30T03:56:26.097Z,16.23
2018-08-30T03:57:26.157Z,16.26
2018-08-30T03:58:26.219Z,16.27
2018-08-30T03:59:26.280Z,16.18
2018-08-30T04:00:26.343Z,16.22
2018-08-30T04:01:26.404Z,16.34
2018-08-30T04:02:26.471Z,16.30
2018-08-30T04:03:26.527Z,16.36
2018-08-30T04:04:26.838Z,16.44
2018-08-30T04:05:26.647Z,16.45
2018-08-30T04:06:26.709Z,16.37
2018-08-30T04:07:26.769Z,16.30
2018-08-30T04:08:26.832Z,16.36
2018-08-30T04:09:26.894Z,16.32
2018-08-30T04:10:26.954Z,16.41
2018-08-30T04:11:27.016Z,16.36
2018-08-30T04:12:27.077Z,16.29
2018-08-30T04:13:27.217Z,16.26
2018-08-30T04:14:27.201Z,16.25
2018-08-30T04:15:27.262Z,16.17
2018-08-30T04:16:27.323Z,16.25
2018-08-30T04:17:27.390Z,16.29
2018-08-30T04:18:27.446Z,16.30
2018-08-30T04:19:27.759Z,16.27
2018-08-30T04:20:27.574Z,16.29
2018-08-30T04:21:27.635Z,16.27
2018-08-30T04:22:27.691Z,16.27
2018-08-30T04:23:27.753Z,16.40
2018-08-30T04:24:27.818Z,16.37
2018-08-30T04:25:27.881Z,16.25
2018-08-30T04:26:27.937Z,16.26
2018-08-30T04:27:27.999Z,16.17
2018-08-30T04:28:28.060Z,16.16
2018-08-30T04:29:28.121Z,16.22
2018-08-30T04:30:28.184Z,16.14
2018-08-30T04:31:28.295Z,16.18
2018-08-30T04:32:28.306Z,16.06
2018-08-30T04:33:28.368Z,16.04
2018-08-30T04:34:28.428Z,16.14
2018-08-30T04:35:28.488Z,16.16
2018-08-30T04:36:28.554Z,16.03
2018-08-30T04:37:28.612Z,16.16
2018-08-30T04:38:28.674Z,16.25
2018-08-30T04:39:28.735Z,16.10
2018-08-30T04:40:28.796Z,16.23
2018-08-30T04:41:28.860Z,16.16
2018-08-30T04:42:29.009Z,16.10
2018-08-30T04:43:28.980Z,16.01
2018-08-30T04:45:16.495Z,16.03
2018-08-30T04:46:16.559Z,16.04
2018-08-30T04:47:16.618Z,15.93
2018-08-30T04:48:16.679Z,15.93
2018-08-30T04:49:16.741Z,15.98
2018-08-30T04:50:16.982Z,15.93
2018-08-30T04:51:16.862Z,15.91
2018-08-30T04:52:16.930Z,15.86
2018-08-30T04:53:16.987Z,15.95
2018-08-30T04:54:17.048Z,15.92
2018-08-30T04:55:17.108Z,15.89
2018-08-30T04:56:17.168Z,15.89
2018-08-30T04:57:17.233Z,15.88
2018-08-30T04:58:17.291Z,15.85
2018-08-30T04:59:17.352Z,15.93
2018-08-30T05:00:17.414Z,15.85
2018-08-30T05:01:17.474Z,15.92
2018-08-30T05:02:17.537Z,15.86
2018-08-30T05:03:17.597Z,15.89
2018-08-30T05:04:17.658Z,15.81
2018-08-30T05:05:17.721Z,15.89
2018-08-30T05:06:18.590Z,15.80
2018-08-30T05:07:17.842Z,15.86
2018-08-30T05:08:18.446Z,15.91
2018-08-30T05:09:17.968Z,15.86
2018-08-30T05:10:18.027Z,15.91
2018-08-30T05:11:18.094Z,15.89
2018-08-30T05:12:18.155Z,15.88
2018-08-30T05:13:18.210Z,15.89
2018-08-30T05:14:18.271Z,15.91
2018-08-30T05:15:18.332Z,16.06
2018-08-30T05:16:18.392Z,16.04
2018-08-30T05:17:18.454Z,15.91
2018-08-30T05:18:18.515Z,15.92
2018-08-30T05:19:18.575Z,15.99
2018-08-30T05:20:18.637Z,15.91
2018-08-30T05:21:18.700Z,15.86
2018-08-30T05:22:18.760Z,15.95
2018-08-30T05:23:18.819Z,15.89
2018-08-30T05:24:18.883Z,15.88
2018-08-30T05:25:18.945Z,15.85
2018-08-30T05:26:19.014Z,15.86
2018-08-30T05:27:19.275Z,15.81
2018-08-30T05:28:19.126Z,15.89
2018-08-30T05:29:19.188Z,15.91
2018-08-30T05:30:19.503Z,15.89
2018-08-30T05:31:19.312Z,15.93
2018-08-30T05:32:19.371Z,15.95
2018-08-30T05:33:19.432Z,15.98
2018-08-30T05:34:19.493Z,15.95
2018-08-30T05:35:19.555Z,15.92
2018-08-30T05:36:19.616Z,15.89
2018-08-30T05:37:19.678Z,15.99
2018-08-30T05:38:19.738Z,16.03
2018-08-30T05:39:19.802Z,16.13
2018-08-30T05:40:19.861Z,16.01
2018-08-30T05:41:19.921Z,16.17
2018-08-30T05:42:19.988Z,16.16
2018-08-30T05:43:20.044Z,16.23
2018-08-30T05:44:20.103Z,16.23
2018-08-30T05:45:20.170Z,16.22
2018-08-30T05:46:20.262Z,16.27
2018-08-30T05:47:20.321Z,16.27
2018-08-30T05:48:20.349Z,16.30
2018-08-30T05:49:20.414Z,16.30
2018-08-30T05:50:20.503Z,16.32
2018-08-30T05:51:20.534Z,16.27
2018-08-30T05:52:20.594Z,16.23
2018-08-30T05:53:20.655Z,16.25
2018-08-30T05:54:20.718Z,16.17
2018-08-30T05:55:20.778Z,16.25
2018-08-30T05:56:20.839Z,16.30
2018-08-30T05:57:20.901Z,16.27
2018-08-30T05:58:20.963Z,16.26
2018-08-30T05:59:21.023Z,16.17
2018-08-30T06:00:21.083Z,16.26
2018-08-30T06:01:21.146Z,16.30
2018-08-30T06:02:21.209Z,16.26
2018-08-30T06:03:21.283Z,16.23
2018-08-30T06:04:21.330Z,16.18
2018-08-30T06:05:21.413Z,16.13
2018-08-30T06:06:21.451Z,16.22
2018-08-30T06:07:21.551Z,16.26
2018-08-30T06:08:21.656Z,16.27
2018-08-30T06:09:21.637Z,16.29
2018-08-30T06:10:21.698Z,16.14
2018-08-30T06:11:21.758Z,16.16
2018-08-30T06:12:21.821Z,16.17
2018-08-30T06:13:21.882Z,16.04
2018-08-30T06:14:21.943Z,16.03
2018-08-30T06:15:22.004Z,16.17
2018-08-30T06:16:22.065Z,16.22
2018-08-30T06:17:22.127Z,16.26
2018-08-30T06:18:22.498Z,16.26
2018-08-30T06:19:22.252Z,16.29
2018-08-30T06:20:22.310Z,16.34
2018-08-30T06:21:22.423Z,16.25
2018-08-30T06:22:22.435Z,16.33
2018-08-30T06:23:22.510Z,16.29
2018-08-30T06:24:22.920Z,16.23
2018-08-30T06:25:22.628Z,16.22
2018-08-30T06:26:22.678Z,16.17
2018-08-30T06:27:22.739Z,16.23
2018-08-30T06:28:22.800Z,16.27
2018-08-30T06:29:22.948Z,16.27
2018-08-30T06:30:22.970Z,16.25
2018-08-30T06:31:22.984Z,16.26
2018-08-30T06:32:23.047Z,16.18
2018-08-30T06:33:23.107Z,16.25
2018-08-30T06:34:23.170Z,16.18
2018-08-30T06:35:23.231Z,16.22
2018-08-30T06:36:23.292Z,16.27
2018-08-30T06:37:23.352Z,16.25
2018-08-30T06:38:23.413Z,16.26
2018-08-30T06:39:23.474Z,16.25
2018-08-30T06:40:23.535Z,16.27
2018-08-30T06:41:23.599Z,16.33
2018-08-30T06:42:23.659Z,16.34
2018-08-30T06:43:23.718Z,16.30
2018-08-30T06:44:23.781Z,16.33
2018-08-30T06:45:23.857Z,16.32
2018-08-30T06:46:23.904Z,16.30
2018-08-30T06:47:23.964Z,16.22
2018-08-30T06:48:24.057Z,16.40
2018-08-30T06:49:24.088Z,16.36
2018-08-30T06:50:24.149Z,16.47
2018-08-30T06:51:24.210Z,16.50
2018-08-30T06:52:24.273Z,16.37
2018-08-30T06:53:24.337Z,16.33
2018-08-30T06:54:24.394Z,16.44
2018-08-30T06:55:24.458Z,16.54
2018-08-30T06:56:24.599Z,16.57
2018-08-30T06:57:24.579Z,16.57
2018-08-30T06:58:24.681Z,16.51
2018-08-30T06:59:24.702Z,16.52
2018-08-30T07:00:24.763Z,16.62
2018-08-30T07:01:24.825Z,16.62
2018-08-30T07:02:24.887Z,16.60
2018-08-30T07:03:24.946Z,16.72
2018-08-30T07:04:25.016Z,16.67
2018-08-30T07:05:25.070Z,16.63
2018-08-30T07:06:25.131Z,16.50
2018-08-30T07:07:25.193Z,16.50
2018-08-30T07:08:25.254Z,16.44
2018-08-30T07:09:25.961Z,16.57
2018-08-30T07:10:25.378Z,16.54
2018-08-30T07:11:25.613Z,16.62
2018-08-30T07:12:25.751Z,16.65
2018-08-30T07:13:25.561Z,16.69
2018-08-30T07:14:25.685Z,16.73
2018-08-30T07:15:25.684Z,16.72
2018-08-30T07:16:25.748Z,16.66
2018-08-30T07:17:25.808Z,16.67
2018-08-30T07:18:25.868Z,16.66
2018-08-30T07:19:25.932Z,16.73
2018-08-30T07:20:25.993Z,16.67
2018-08-30T07:21:26.054Z,16.78
2018-08-30T07:22:26.115Z,16.84
2018-08-30T07:23:26.178Z,16.84
2018-08-30T07:24:26.433Z,16.87
2018-08-30T07:25:26.302Z,16.91
2018-08-30T07:26:26.361Z,16.96
2018-08-30T07:27:26.423Z,17.09
2018-08-30T07:28:26.547Z,17.02
2018-08-30T07:29:26.547Z,17.02
2018-08-30T07:30:26.609Z,17.06
2018-08-30T07:31:26.704Z,17.09
2018-08-30T07:32:26.734Z,17.12
2018-08-30T07:33:26.796Z,17.12
2018-08-30T07:34:26.974Z,17.09
2018-08-30T07:35:26.920Z,17.09
2018-08-30T07:36:26.980Z,17.00
2018-08-30T07:37:27.045Z,16.99
2018-08-30T07:38:27.105Z,17.09
2018-08-30T07:39:27.166Z,17.22
2018-08-30T07:40:27.229Z,17.30
2018-08-30T07:41:27.295Z,17.32
2018-08-30T07:42:27.353Z,17.43
2018-08-30T07:43:27.416Z,17.53
2018-08-30T07:44:27.646Z,17.54
2018-08-30T07:45:27.540Z,17.57
2018-08-30T07:46:27.603Z,17.55
2018-08-30T07:47:27.665Z,17.58
2018-08-30T07:48:27.728Z,17.74
2018-08-30T07:49:28.136Z,17.74
2018-08-30T07:50:27.853Z,17.80
2018-08-30T07:51:27.925Z,17.92
2018-08-30T07:52:27.978Z,18.10
2018-08-30T07:53:28.040Z,18.14
2018-08-30T07:54:28.159Z,18.13
2018-08-30T07:55:28.473Z,18.10
2018-08-30T07:56:28.227Z,18.19
2018-08-30T07:57:28.309Z,18.25
2018-08-30T07:58:28.353Z,18.31
2018-08-30T07:59:28.417Z,18.25
2018-08-30T08:00:28.478Z,18.32
2018-08-30T08:01:28.542Z,18.31
2018-08-30T08:02:28.610Z,18.05
2018-08-30T08:03:28.668Z,18.09
2018-08-30T08:04:28.729Z,18.16
2018-08-30T08:05:28.797Z,18.21
2018-08-30T08:06:28.859Z,18.32
2018-08-30T08:07:28.919Z,18.32
2018-08-30T08:08:28.983Z,18.20
2018-08-30T08:09:29.077Z,18.23
2018-08-30T08:10:29.505Z,18.20
2018-08-30T08:11:29.604Z,18.31
2018-08-30T08:12:29.301Z,18.34
2018-08-30T08:13:29.299Z,18.47
2018-08-30T08:14:29.361Z,18.59
2018-08-30T08:15:29.426Z,18.65
2018-08-30T08:16:29.496Z,18.76
2018-08-30T08:17:29.551Z,18.78
2018-08-30T08:18:29.616Z,18.90
2018-08-30T08:19:29.679Z,18.86
2018-08-30T08:20:29.759Z,18.87
2018-08-30T08:21:29.822Z,18.99
2018-08-30T08:22:30.057Z,19.09
2018-08-30T08:23:29.931Z,19.15
2018-08-30T08:24:29.996Z,19.13
2018-08-30T08:25:30.140Z,19.31
2018-08-30T08:26:30.122Z,19.24
2018-08-30T08:27:30.185Z,19.09
2018-08-30T08:28:30.248Z,19.27
2018-08-30T08:29:30.313Z,19.16
2018-08-30T08:30:30.378Z,19.34
2018-08-30T08:31:30.439Z,19.40
2018-08-30T08:32:30.505Z,19.45
2018-08-30T08:33:30.569Z,19.50
2018-08-30T08:34:30.633Z,19.52
2018-08-30T08:35:30.802Z,19.60
2018-08-30T08:36:31.543Z,19.53
2018-08-30T08:37:30.825Z,19.57
2018-08-30T08:38:31.203Z,19.68
2018-08-30T08:39:30.954Z,19.67
2018-08-30T08:40:31.018Z,19.82
2018-08-30T08:41:31.083Z,19.82
2018-08-30T08:42:31.152Z,19.78
2018-08-30T08:43:31.213Z,19.85
2018-08-30T08:44:31.277Z,19.67
2018-08-30T08:45:31.340Z,19.80
2018-08-30T08:46:31.404Z,20.00
2018-08-30T08:47:31.469Z,19.97
2018-08-30T08:48:31.533Z,20.22
2018-08-30T08:49:31.601Z,20.00
2018-08-30T08:50:31.663Z,20.04
2018-08-30T08:51:32.356Z,20.22
2018-08-30T08:52:31.792Z,20.31
2018-08-30T08:53:31.857Z,20.31
2018-08-30T08:54:31.930Z,20.37
2018-08-30T08:55:32.300Z,20.34
2018-08-30T08:56:32.088Z,20.42
2018-08-30T08:57:32.116Z,20.58
2018-08-30T08:58:32.202Z,20.54
2018-08-30T08:59:32.248Z,20.50
2018-08-30T09:00:32.310Z,20.40
2018-08-30T09:01:32.403Z,20.16
2018-08-30T09:02:32.442Z,20.04
2018-08-30T09:03:33.225Z,19.98
2018-08-30T09:04:32.571Z,20.23
2018-08-30T09:05:32.637Z,20.25
2018-08-30T09:06:32.740Z,20.30
2018-08-30T09:07:32.796Z,20.34
2018-08-30T09:08:32.833Z,20.35
2018-08-30T09:09:32.935Z,20.25
2018-08-30T09:10:32.962Z,20.17
2018-08-30T09:11:33.025Z,20.05
2018-08-30T09:12:33.090Z,20.04
2018-08-30T09:13:33.157Z,20.19
2018-08-30T09:14:33.337Z,20.25
2018-08-30T09:15:33.296Z,20.16
2018-08-30T09:16:33.353Z,20.12
2018-08-30T09:17:33.417Z,20.31
2018-08-30T09:18:33.764Z,20.33
2018-08-30T09:19:33.545Z,20.10
2018-08-30T09:20:33.937Z,19.90
2018-08-30T09:21:33.676Z,19.90
2018-08-30T09:22:33.777Z,20.00
2018-08-30T09:23:33.806Z,19.87
2018-08-30T09:24:33.934Z,19.85
2018-08-30T09:25:33.936Z,19.89
2018-08-30T09:26:34.002Z,19.94
2018-08-30T09:27:34.082Z,20.00
2018-08-30T09:28:34.133Z,19.95
2018-08-30T09:29:34.197Z,20.07
2018-08-30T09:30:34.588Z,20.17
2018-08-30T09:31:34.324Z,20.10
2018-08-30T09:32:34.455Z,20.01
2018-08-30T09:33:34.456Z,20.16
2018-08-30T09:34:34.519Z,20.37
2018-08-30T09:35:34.588Z,20.50
2018-08-30T09:36:34.648Z,20.51
2018-08-30T09:37:34.716Z,20.41
2018-08-30T09:38:34.780Z,20.63
2018-08-30T09:39:34.841Z,20.81
2018-08-30T09:40:34.907Z,20.91
2018-08-30T09:41:34.972Z,20.75
2018-08-30T09:42:35.037Z,20.56
2018-08-30T09:43:35.759Z,20.63
2018-08-30T09:44:35.167Z,20.51
2018-08-30T09:45:35.983Z,20.37
2018-08-30T09:46:35.297Z,20.51
2018-08-30T09:47:35.361Z,20.51
2018-08-30T09:48:35.427Z,20.19
2018-08-30T09:49:35.558Z,20.30
2018-08-30T09:50:35.556Z,20.33
2018-08-30T09:51:35.621Z,20.22
2018-08-30T09:52:36.303Z,20.25
2018-08-30T09:53:35.752Z,20.31
2018-08-30T09:54:35.816Z,20.31
2018-08-30T09:55:35.934Z,20.46
2018-08-30T09:56:35.998Z,20.66
2018-08-30T09:57:36.047Z,20.51
2018-08-30T09:58:36.074Z,20.58
2018-08-30T09:59:36.137Z,20.46
2018-08-30T10:00:36.205Z,20.46
2018-08-30T10:01:36.265Z,20.75
2018-08-30T10:02:36.332Z,20.91
2018-08-30T10:03:36.396Z,20.88
2018-08-30T10:04:36.508Z,21.12
2018-08-30T10:05:36.525Z,21.06
2018-08-30T10:06:36.590Z,21.03
2018-08-30T10:07:36.658Z,21.09
2018-08-30T10:08:36.870Z,20.91
2018-08-30T10:09:36.785Z,20.88
2018-08-30T10:10:36.851Z,20.79
2018-08-30T10:11:36.914Z,20.81
2018-08-30T10:12:37.405Z,20.90
2018-08-30T10:13:37.248Z,21.08
2018-08-30T10:14:37.115Z,21.09
2018-08-30T10:15:37.176Z,21.08
2018-08-30T10:16:37.239Z,21.08
2018-08-30T10:17:37.306Z,21.06
2018-08-30T10:18:37.429Z,20.93
2018-08-30T10:19:37.436Z,20.94
2018-08-30T10:20:37.501Z,21.38
2018-08-30T10:21:37.690Z,21.42
2018-08-30T10:22:37.632Z,21.46
2018-08-30T10:23:37.699Z,21.46
2018-08-30T10:24:37.767Z,21.46
2018-08-30T10:25:37.857Z,21.67
2018-08-30T10:26:37.893Z,21.53
2018-08-30T10:27:37.958Z,21.73
2018-08-30T10:28:38.023Z,21.81
2018-08-30T10:29:38.088Z,21.96
2018-08-30T10:30:38.154Z,21.77
2018-08-30T10:31:38.345Z,21.66
2018-08-30T10:32:38.284Z,21.71
2018-08-30T10:33:38.356Z,22.05
2018-08-30T10:34:38.420Z,22.14
2018-08-30T10:35:38.811Z,22.20
2018-08-30T10:36:38.562Z,22.20
2018-08-30T10:37:38.652Z,22.51
2018-08-30T10:38:38.678Z,22.74
2018-08-30T10:39:38.775Z,22.81
2018-08-30T10:40:38.808Z,22.79
2018-08-30T10:41:38.876Z,22.85
2018-08-30T10:42:38.943Z,22.97
2018-08-30T10:43:39.010Z,22.82
2018-08-30T10:44:39.115Z,22.75
2018-08-30T10:45:39.208Z,23.04
2018-08-30T10:46:39.206Z,23.06
2018-08-30T10:47:39.273Z,23.14
2018-08-30T10:48:39.340Z,23.04
2018-08-30T10:49:39.464Z,22.86
2018-08-30T10:50:39.473Z,23.01
2018-08-30T10:51:39.542Z,23.32
2018-08-30T10:52:39.614Z,23.45
2018-08-30T10:53:39.684Z,23.38
2018-08-30T10:54:39.743Z,23.29
2018-08-30T10:55:39.809Z,23.06
2018-08-30T10:56:39.883Z,22.84
2018-08-30T10:57:39.954Z,22.75
2018-08-30T10:58:40.013Z,22.86
2018-08-30T10:59:40.080Z,22.72
2018-08-30T11:00:40.153Z,22.72
2018-08-30T11:01:40.214Z,22.69
2018-08-30T11:02:40.281Z,22.31
2018-08-30T11:03:40.347Z,21.85
2018-08-30T11:04:40.416Z,21.77
2018-08-30T11:05:40.482Z,21.93
2018-08-30T11:06:40.549Z,21.63
2018-08-30T11:07:40.616Z,21.40
2018-08-30T11:09:43.188Z,21.56
2018-08-30T11:10:43.253Z,21.55
2018-08-30T11:11:43.318Z,21.48
2018-08-30T11:12:43.451Z,21.40
2018-08-30T11:13:43.453Z,21.40
2018-08-30T11:14:43.519Z,21.63
2018-08-30T11:15:43.586Z,21.82
2018-08-30T11:16:43.652Z,21.91
2018-08-30T11:17:43.719Z,22.04
2018-08-30T11:18:43.782Z,22.14
2018-08-30T11:19:43.850Z,22.19
2018-08-30T11:20:43.915Z,22.11
2018-08-30T11:21:43.982Z,22.19
2018-08-30T11:22:44.047Z,22.27
2018-08-30T11:23:44.135Z,22.51
2018-08-30T11:24:44.181Z,22.66
2018-08-30T11:25:44.265Z,22.84
2018-08-30T11:26:44.313Z,23.01
2018-08-30T11:27:44.379Z,23.34
2018-08-30T11:28:44.448Z,23.77
2018-08-30T11:29:44.514Z,23.94
2018-08-30T11:30:44.578Z,24.00
2018-08-30T11:31:44.646Z,24.12
2018-08-30T11:32:44.713Z,23.89
2018-08-30T11:33:44.780Z,24.09
2018-08-30T11:34:44.848Z,23.99
2018-08-30T11:35:44.915Z,23.69
2018-08-30T11:36:44.982Z,23.54
2018-08-30T11:37:45.070Z,23.44
2018-08-30T11:38:45.116Z,23.29
2018-08-30T11:39:45.184Z,23.19
2018-08-30T11:40:45.254Z,23.00
2018-08-30T11:41:45.377Z,22.86
2018-08-30T11:42:45.389Z,22.88
2018-08-30T11:43:45.454Z,22.78
2018-08-30T11:44:46.276Z,22.61
2018-08-30T11:45:45.589Z,22.27
2018-08-30T11:46:45.656Z,22.11
2018-08-30T11:47:45.731Z,21.89
2018-08-30T11:48:45.791Z,21.77
2018-08-30T11:49:45.859Z,21.81
2018-08-30T11:50:45.923Z,21.67
2018-08-30T11:51:46.563Z,21.89
2018-08-30T11:52:46.232Z,21.98
2018-08-30T11:53:46.124Z,22.11
2018-08-30T11:54:46.190Z,22.15
2018-08-30T11:55:46.256Z,22.29
2018-08-30T11:56:46.326Z,22.39
2018-08-30T11:57:46.389Z,22.51
2018-08-30T11:58:46.465Z,22.84
2018-08-30T11:59:46.837Z,23.19
2018-08-30T12:00:46.639Z,24.11
2018-08-30T12:01:46.671Z,24.80
2018-08-30T12:02:46.720Z,24.49
2018-08-30T12:03:47.239Z,24.45
2018-08-30T12:04:46.855Z,24.45
2018-08-30T12:05:47.576Z,24.61
2018-08-30T12:06:47.028Z,24.77
2018-08-30T12:07:47.110Z,24.68
2018-08-30T12:08:47.123Z,24.89
2018-08-30T12:09:47.192Z,24.44
2018-08-30T12:10:47.363Z,24.48
2018-08-30T12:11:48.043Z,24.46
2018-08-30T12:12:47.397Z,24.37
2018-08-30T12:13:47.464Z,24.45
2018-08-30T12:14:47.533Z,24.49
2018-08-30T12:15:47.602Z,24.29
2018-08-30T12:16:47.688Z,23.56
2018-08-30T12:17:47.739Z,23.38
2018-08-30T12:18:47.831Z,23.35
2018-08-30T12:19:48.513Z,23.35
2018-08-30T12:20:48.631Z,23.44
2018-08-30T12:21:48.923Z,23.63
2018-08-30T12:22:48.097Z,24.48
2018-08-30T12:23:48.149Z,24.42
2018-08-30T12:24:48.232Z,24.09
2018-08-30T12:25:48.345Z,23.93
2018-08-30T12:26:48.356Z,23.62
2018-08-30T12:27:48.488Z,23.45
2018-08-30T12:28:48.616Z,23.38
2018-08-30T12:29:48.883Z,23.47
2018-08-30T12:30:52.685Z,23.39
2018-08-30T12:31:48.839Z,23.35
2018-08-30T12:32:48.810Z,23.42
2018-08-30T12:33:48.856Z,23.52
2018-08-30T12:34:49.494Z,23.52
2018-08-30T12:35:49.086Z,23.64
2018-08-30T12:36:49.125Z,23.63
2018-08-30T12:37:49.105Z,23.77
2018-08-30T12:38:49.212Z,23.97
2018-08-30T12:39:49.410Z,23.82
2018-08-30T12:40:49.350Z,24.00
2018-08-30T12:41:49.426Z,24.15
2018-08-30T12:42:49.533Z,24.92
2018-08-30T12:43:49.626Z,25.82
2018-08-30T12:44:49.590Z,26.34
2018-08-30T12:45:49.727Z,26.47
2018-08-30T12:46:49.743Z,25.98
2018-08-30T12:47:49.815Z,25.57
2018-08-30T12:48:49.884Z,25.34
2018-08-30T12:49:49.931Z,25.05
2018-08-30T12:50:50.133Z,25.39
2018-08-30T12:51:50.201Z,24.45
2018-08-30T12:52:50.258Z,24.14
2018-08-30T12:53:50.327Z,24.00
2018-08-30T12:54:50.357Z,23.97